sensor_id;sensor_type;location;lat;lon;timestamp;pressure;altitude;pressure_sealevel;temperature;humidity
57094;BME280;42970;50.996;3.706;2023-08-12T00:00:47;47181.91;;;-146.65;95.43
57094;BME280;42970;50.996;3.706;2023-08-12T00:03:13;47177.91;;;-146.65;96.15
57094;BME280;42970;50.996;3.706;2023-08-12T00:05:38;47181.91;;;-146.65;95.64
57094;BME280;42970;50.996;3.706;2023-08-12T00:08:05;47175.91;;;-146.65;95.31
57094;BME280;42970;50.996;3.706;2023-08-12T00:10:30;47181.91;;;-146.65;95.78
57094;BME280;42970;50.996;3.706;2023-08-12T00:12:56;47181.91;;;-146.65;95.75
57094;BME280;42970;50.996;3.706;2023-08-12T00:15:21;47177.91;;;-146.65;95.32
57094;BME280;42970;50.996;3.706;2023-08-12T00:17:46;47177.91;;;-146.65;95.28
57094;BME280;42970;50.996;3.706;2023-08-12T00:20:12;47175.91;;;-146.65;95.14
57094;BME280;42970;50.996;3.706;2023-08-12T00:22:37;47177.91;;;-146.65;94.77
57094;BME280;42970;50.996;3.706;2023-08-12T00:25:03;47185.91;;;-146.65;94.67
57094;BME280;42970;50.996;3.706;2023-08-12T00:27:28;47173.91;;;-146.65;94.32
57094;BME280;42970;50.996;3.706;2023-08-12T00:29:54;47179.91;;;-146.65;94.62
57094;BME280;42970;50.996;3.706;2023-08-12T00:32:19;47181.91;;;-146.65;94.54
57094;BME280;42970;50.996;3.706;2023-08-12T00:34:44;47179.91;;;-146.65;94.32
57094;BME280;42970;50.996;3.706;2023-08-12T00:37:10;47179.91;;;-146.65;94.70
57094;BME280;42970;50.996;3.706;2023-08-12T00:39:35;47177.91;;;-146.65;94.58
57094;BME280;42970;50.996;3.706;2023-08-12T00:42:00;47183.91;;;-146.65;94.47
57094;BME280;42970;50.996;3.706;2023-08-12T00:44:26;47181.91;;;-146.65;93.98
57094;BME280;42970;50.996;3.706;2023-08-12T00:46:51;47181.91;;;-146.65;94.13
57094;BME280;42970;50.996;3.706;2023-08-12T00:49:17;47179.91;;;-146.65;94.24
57094;BME280;42970;50.996;3.706;2023-08-12T00:51:43;47177.91;;;-146.65;94.22
57094;BME280;42970;50.996;3.706;2023-08-12T00:54:10;47181.91;;;-146.65;94.27
57094;BME280;42970;50.996;3.706;2023-08-12T00:56:38;47177.91;;;-146.65;94.53
57094;BME280;42970;50.996;3.706;2023-08-12T00:59:04;47175.91;;;-146.65;94.44
57094;BME280;42970;50.996;3.706;2023-08-12T01:01:29;47177.91;;;-146.65;94.61
57094;BME280;42970;50.996;3.706;2023-08-12T01:03:55;47181.91;;;-146.65;94.55
57094;BME280;42970;50.996;3.706;2023-08-12T01:06:21;47175.91;;;-146.65;94.26
57094;BME280;42970;50.996;3.706;2023-08-12T01:08:46;47179.91;;;-146.65;94.13
57094;BME280;42970;50.996;3.706;2023-08-12T01:11:24;47181.91;;;-146.65;94.17
57094;BME280;42970;50.996;3.706;2023-08-12T01:16:16;47183.91;;;-146.65;94.40
57094;BME280;42970;50.996;3.706;2023-08-12T01:18:42;47175.91;;;-146.65;94.19
57094;BME280;42970;50.996;3.706;2023-08-12T01:21:09;47181.91;;;-146.65;94.87
57094;BME280;42970;50.996;3.706;2023-08-12T01:23:37;47179.91;;;-146.65;95.47
57094;BME280;42970;50.996;3.706;2023-08-12T01:26:04;47179.91;;;-146.65;95.46
57094;BME280;42970;50.996;3.706;2023-08-12T01:28:29;47179.91;;;-146.65;95.97
57094;BME280;42970;50.996;3.706;2023-08-12T01:30:56;47177.91;;;-146.65;96.92
57094;BME280;42970;50.996;3.706;2023-08-12T01:36:12;47183.91;;;-146.65;97.36
57094;BME280;42970;50.996;3.706;2023-08-12T01:38:38;47177.91;;;-146.65;97.54
57094;BME280;42970;50.996;3.706;2023-08-12T01:41:03;47181.91;;;-146.65;97.70
57094;BME280;42970;50.996;3.706;2023-08-12T01:43:29;47177.91;;;-146.65;97.57
57094;BME280;42970;50.996;3.706;2023-08-12T01:45:54;47181.91;;;-146.65;97.71
57094;BME280;42970;50.996;3.706;2023-08-12T01:48:20;47177.91;;;-146.65;98.46
57094;BME280;42970;50.996;3.706;2023-08-12T01:50:48;47181.91;;;-146.65;97.96
57094;BME280;42970;50.996;3.706;2023-08-12T01:53:13;47181.91;;;-146.65;97.78
57094;BME280;42970;50.996;3.706;2023-08-12T01:55:39;47177.91;;;-146.65;97.57
57094;BME280;42970;50.996;3.706;2023-08-12T01:58:04;47177.91;;;-146.65;97.38
57094;BME280;42970;50.996;3.706;2023-08-12T02:00:29;47177.91;;;-146.65;97.41
57094;BME280;42970;50.996;3.706;2023-08-12T02:02:54;47179.91;;;-146.65;97.27
57094;BME280;42970;50.996;3.706;2023-08-12T02:05:20;47179.91;;;-146.65;97.30
57094;BME280;42970;50.996;3.706;2023-08-12T02:07:45;47181.91;;;-146.65;97.16
57094;BME280;42970;50.996;3.706;2023-08-12T02:10:10;47179.91;;;-146.65;97.39
57094;BME280;42970;50.996;3.706;2023-08-12T02:12:36;47177.91;;;-146.65;97.79
57094;BME280;42970;50.996;3.706;2023-08-12T02:15:01;47185.91;;;-146.65;98.05
57094;BME280;42970;50.996;3.706;2023-08-12T02:17:26;47179.91;;;-146.65;98.20
57094;BME280;42970;50.996;3.706;2023-08-12T02:19:52;47183.91;;;-146.65;98.59
57094;BME280;42970;50.996;3.706;2023-08-12T02:22:17;47181.91;;;-146.65;99.26
57094;BME280;42970;50.996;3.706;2023-08-12T02:24:42;47177.91;;;-146.65;100.00
57094;BME280;42970;50.996;3.706;2023-08-12T02:27:08;47181.91;;;-146.65;100.00
57094;BME280;42970;50.996;3.706;2023-08-12T02:29:33;47179.91;;;-146.65;100.00
57094;BME280;42970;50.996;3.706;2023-08-12T02:31:58;47181.91;;;-146.65;100.00
57094;BME280;42970;50.996;3.706;2023-08-12T02:34:23;47177.91;;;-146.65;100.00
57094;BME280;42970;50.996;3.706;2023-08-12T02:36:49;47181.91;;;-146.65;100.00
57094;BME280;42970;50.996;3.706;2023-08-12T02:39:14;47173.91;;;-146.65;100.00
57094;BME280;42970;50.996;3.706;2023-08-12T02:41:39;47183.91;;;-146.65;100.00
57094;BME280;42970;50.996;3.706;2023-08-12T02:44:05;47177.91;;;-146.65;100.00
57094;BME280;42970;50.996;3.706;2023-08-12T02:46:30;47177.91;;;-146.65;100.00
57094;BME280;42970;50.996;3.706;2023-08-12T02:48:55;47183.91;;;-146.65;100.00
57094;BME280;42970;50.996;3.706;2023-08-12T02:51:20;47177.91;;;-146.65;100.00
57094;BME280;42970;50.996;3.706;2023-08-12T02:53:46;47177.91;;;-146.65;100.00
57094;BME280;42970;50.996;3.706;2023-08-12T02:56:11;47181.91;;;-146.65;100.00
57094;BME280;42970;50.996;3.706;2023-08-12T02:58:36;47181.91;;;-146.65;100.00
57094;BME280;42970;50.996;3.706;2023-08-12T03:01:02;47177.91;;;-146.65;100.00
57094;BME280;42970;50.996;3.706;2023-08-12T03:03:29;47179.91;;;-146.65;100.00
57094;BME280;42970;50.996;3.706;2023-08-12T03:05:54;47181.91;;;-146.65;100.00
57094;BME280;42970;50.996;3.706;2023-08-12T03:08:19;47175.91;;;-146.65;100.00
57094;BME280;42970;50.996;3.706;2023-08-12T03:10:45;47179.91;;;-146.65;100.00
57094;BME280;42970;50.996;3.706;2023-08-12T03:13:10;47173.91;;;-146.65;100.00
57094;BME280;42970;50.996;3.706;2023-08-12T03:15:38;47177.91;;;-146.65;100.00
57094;BME280;42970;50.996;3.706;2023-08-12T03:18:03;47181.91;;;-146.65;100.00
57094;BME280;42970;50.996;3.706;2023-08-12T03:20:29;47181.91;;;-146.65;100.00
57094;BME280;42970;50.996;3.706;2023-08-12T03:22:54;47177.91;;;-146.65;100.00
57094;BME280;42970;50.996;3.706;2023-08-12T03:25:19;47181.91;;;-146.65;100.00
57094;BME280;42970;50.996;3.706;2023-08-12T03:27:45;47177.91;;;-146.65;100.00
57094;BME280;42970;50.996;3.706;2023-08-12T03:30:10;47179.91;;;-146.65;100.00
57094;BME280;42970;50.996;3.706;2023-08-12T03:32:36;47177.91;;;-146.65;100.00
57094;BME280;42970;50.996;3.706;2023-08-12T03:35:01;47175.91;;;-146.65;100.00
57094;BME280;42970;50.996;3.706;2023-08-12T03:37:26;47177.91;;;-146.65;100.00
57094;BME280;42970;50.996;3.706;2023-08-12T03:39:52;47177.91;;;-146.65;100.00
57094;BME280;42970;50.996;3.706;2023-08-12T03:42:17;47179.91;;;-146.65;100.00
57094;BME280;42970;50.996;3.706;2023-08-12T03:44:43;47179.91;;;-146.65;100.00
57094;BME280;42970;50.996;3.706;2023-08-12T03:47:08;47177.91;;;-146.65;100.00
57094;BME280;42970;50.996;3.706;2023-08-12T03:49:33;47177.91;;;-146.65;100.00
57094;BME280;42970;50.996;3.706;2023-08-12T03:51:59;47177.91;;;-146.65;100.00
57094;BME280;42970;50.996;3.706;2023-08-12T03:54:24;47177.91;;;-146.65;100.00
57094;BME280;42970;50.996;3.706;2023-08-12T03:56:49;47181.91;;;-146.65;100.00
57094;BME280;42970;50.996;3.706;2023-08-12T03:59:15;47175.91;;;-146.65;100.00
57094;BME280;42970;50.996;3.706;2023-08-12T04:01:40;47179.91;;;-146.65;100.00
57094;BME280;42970;50.996;3.706;2023-08-12T04:04:05;47181.91;;;-146.65;100.00
57094;BME280;42970;50.996;3.706;2023-08-12T04:06:31;47183.91;;;-146.65;100.00
57094;BME280;42970;50.996;3.706;2023-08-12T04:08:56;47179.91;;;-146.65;100.00
57094;BME280;42970;50.996;3.706;2023-08-12T04:11:21;47175.91;;;-146.65;100.00
57094;BME280;42970;50.996;3.706;2023-08-12T04:13:46;47175.91;;;-146.65;100.00
57094;BME280;42970;50.996;3.706;2023-08-12T04:16:12;47179.91;;;-146.65;100.00
57094;BME280;42970;50.996;3.706;2023-08-12T04:18:37;47177.91;;;-146.65;100.00
57094;BME280;42970;50.996;3.706;2023-08-12T04:21:02;47179.91;;;-146.65;100.00
57094;BME280;42970;50.996;3.706;2023-08-12T04:23:28;47177.91;;;-146.65;100.00
57094;BME280;42970;50.996;3.706;2023-08-12T04:25:53;47175.91;;;-146.65;100.00
57094;BME280;42970;50.996;3.706;2023-08-12T04:28:21;47179.91;;;-146.65;100.00
57094;BME280;42970;50.996;3.706;2023-08-12T04:30:47;47183.91;;;-146.65;100.00
57094;BME280;42970;50.996;3.706;2023-08-12T04:33:13;47177.91;;;-146.65;100.00
57094;BME280;42970;50.996;3.706;2023-08-12T04:35:39;47177.91;;;-146.65;100.00
57094;BME280;42970;50.996;3.706;2023-08-12T04:38:04;47181.91;;;-146.65;100.00
57094;BME280;42970;50.996;3.706;2023-08-12T04:40:29;47177.91;;;-146.65;100.00
57094;BME280;42970;50.996;3.706;2023-08-12T04:42:55;47177.91;;;-146.65;100.00
57094;BME280;42970;50.996;3.706;2023-08-12T04:45:20;47177.91;;;-146.65;100.00
57094;BME280;42970;50.996;3.706;2023-08-12T04:47:45;47183.91;;;-146.65;100.00
57094;BME280;42970;50.996;3.706;2023-08-12T04:50:11;47181.91;;;-146.65;100.00
57094;BME280;42970;50.996;3.706;2023-08-12T04:52:36;47177.91;;;-146.65;100.00
57094;BME280;42970;50.996;3.706;2023-08-12T04:55:01;47177.91;;;-146.65;100.00
57094;BME280;42970;50.996;3.706;2023-08-12T04:57:28;47175.91;;;-146.65;100.00
57094;BME280;42970;50.996;3.706;2023-08-12T04:59:53;47175.91;;;-146.65;100.00
57094;BME280;42970;50.996;3.706;2023-08-12T05:02:19;47175.91;;;-146.65;100.00
57094;BME280;42970;50.996;3.706;2023-08-12T05:04:49;47177.91;;;-146.65;100.00
57094;BME280;42970;50.996;3.706;2023-08-12T05:07:15;47177.91;;;-146.65;100.00
57094;BME280;42970;50.996;3.706;2023-08-12T05:09:40;47181.91;;;-146.65;100.00
57094;BME280;42970;50.996;3.706;2023-08-12T05:12:05;47177.91;;;-146.65;100.00
57094;BME280;42970;50.996;3.706;2023-08-12T05:14:31;47175.91;;;-146.65;100.00
57094;BME280;42970;50.996;3.706;2023-08-12T05:16:56;47175.91;;;-146.65;100.00
57094;BME280;42970;50.996;3.706;2023-08-12T05:19:21;47177.91;;;-146.65;100.00
57094;BME280;42970;50.996;3.706;2023-08-12T05:21:48;47179.91;;;-146.65;100.00
57094;BME280;42970;50.996;3.706;2023-08-12T05:24:13;47179.91;;;-146.65;100.00
57094;BME280;42970;50.996;3.706;2023-08-12T05:26:38;47179.91;;;-146.65;100.00
57094;BME280;42970;50.996;3.706;2023-08-12T05:29:03;47181.91;;;-146.65;100.00
57094;BME280;42970;50.996;3.706;2023-08-12T05:31:29;47179.91;;;-146.65;100.00
57094;BME280;42970;50.996;3.706;2023-08-12T05:33:54;47175.91;;;-146.65;100.00
57094;BME280;42970;50.996;3.706;2023-08-12T05:36:19;47177.91;;;-146.65;100.00
57094;BME280;42970;50.996;3.706;2023-08-12T05:38:45;47181.91;;;-146.65;100.00
57094;BME280;42970;50.996;3.706;2023-08-12T05:41:10;47177.91;;;-146.65;100.00
57094;BME280;42970;50.996;3.706;2023-08-12T05:43:36;47177.91;;;-146.65;100.00
57094;BME280;42970;50.996;3.706;2023-08-12T05:46:01;47179.91;;;-146.65;100.00
57094;BME280;42970;50.996;3.706;2023-08-12T05:48:26;47175.91;;;-146.65;100.00
57094;BME280;42970;50.996;3.706;2023-08-12T05:50:52;47177.91;;;-146.65;100.00
57094;BME280;42970;50.996;3.706;2023-08-12T05:53:17;47175.91;;;-146.65;100.00
57094;BME280;42970;50.996;3.706;2023-08-12T05:55:42;47175.91;;;-146.65;100.00
57094;BME280;42970;50.996;3.706;2023-08-12T05:58:07;47177.91;;;-146.65;100.00
57094;BME280;42970;50.996;3.706;2023-08-12T06:00:33;47177.91;;;-146.65;100.00
57094;BME280;42970;50.996;3.706;2023-08-12T06:02:58;47185.91;;;-146.65;100.00
57094;BME280;42970;50.996;3.706;2023-08-12T06:05:23;47179.91;;;-146.65;100.00
57094;BME280;42970;50.996;3.706;2023-08-12T06:07:49;47173.91;;;-146.65;100.00
57094;BME280;42970;50.996;3.706;2023-08-12T06:10:14;47177.91;;;-146.65;100.00
57094;BME280;42970;50.996;3.706;2023-08-12T06:12:39;47175.91;;;-146.65;100.00
57094;BME280;42970;50.996;3.706;2023-08-12T06:15:05;47175.91;;;-146.65;100.00
57094;BME280;42970;50.996;3.706;2023-08-12T06:17:30;47177.91;;;-146.65;100.00
57094;BME280;42970;50.996;3.706;2023-08-12T06:19:55;47179.91;;;-146.65;100.00
57094;BME280;42970;50.996;3.706;2023-08-12T06:22:21;47177.91;;;-146.65;100.00
57094;BME280;42970;50.996;3.706;2023-08-12T06:24:46;47179.91;;;-146.65;100.00
57094;BME280;42970;50.996;3.706;2023-08-12T06:27:11;47177.91;;;-146.65;100.00
57094;BME280;42970;50.996;3.706;2023-08-12T06:29:37;47179.91;;;-146.65;100.00
57094;BME280;42970;50.996;3.706;2023-08-12T06:32:02;47177.91;;;-146.65;100.00
57094;BME280;42970;50.996;3.706;2023-08-12T06:34:27;47177.91;;;-146.65;100.00
57094;BME280;42970;50.996;3.706;2023-08-12T06:36:53;47179.91;;;-146.65;100.00
57094;BME280;42970;50.996;3.706;2023-08-12T06:39:18;47173.91;;;-146.65;100.00
57094;BME280;42970;50.996;3.706;2023-08-12T06:41:43;47175.91;;;-146.65;100.00
57094;BME280;42970;50.996;3.706;2023-08-12T06:44:09;47181.91;;;-146.65;100.00
57094;BME280;42970;50.996;3.706;2023-08-12T06:46:34;47173.91;;;-146.65;100.00
57094;BME280;42970;50.996;3.706;2023-08-12T06:48:59;47177.91;;;-146.65;100.00
57094;BME280;42970;50.996;3.706;2023-08-12T06:51:24;47177.91;;;-146.65;100.00
57094;BME280;42970;50.996;3.706;2023-08-12T06:53:50;47177.91;;;-146.65;100.00
57094;BME280;42970;50.996;3.706;2023-08-12T06:56:15;47181.91;;;-146.65;100.00
57094;BME280;42970;50.996;3.706;2023-08-12T06:58:40;47175.91;;;-146.65;100.00
57094;BME280;42970;50.996;3.706;2023-08-12T07:01:06;47173.91;;;-146.65;100.00
57094;BME280;42970;50.996;3.706;2023-08-12T07:03:31;47175.91;;;-146.65;100.00
57094;BME280;42970;50.996;3.706;2023-08-12T07:05:58;47179.91;;;-146.65;100.00
57094;BME280;42970;50.996;3.706;2023-08-12T07:08:23;47175.91;;;-146.65;100.00
57094;BME280;42970;50.996;3.706;2023-08-12T07:10:48;47183.91;;;-146.65;100.00
57094;BME280;42970;50.996;3.706;2023-08-12T07:13:14;47177.91;;;-146.65;100.00
57094;BME280;42970;50.996;3.706;2023-08-12T07:15:39;47175.91;;;-146.65;100.00
57094;BME280;42970;50.996;3.706;2023-08-12T07:18:04;47175.91;;;-146.65;99.13
57094;BME280;42970;50.996;3.706;2023-08-12T07:20:30;47177.91;;;-146.65;97.67
57094;BME280;42970;50.996;3.706;2023-08-12T07:22:55;47175.91;;;-146.65;95.49
57094;BME280;42970;50.996;3.706;2023-08-12T07:25:21;47179.91;;;-146.65;96.18
57094;BME280;42970;50.996;3.706;2023-08-12T07:27:46;47173.91;;;-146.65;95.31
57094;BME280;42970;50.996;3.706;2023-08-12T07:30:12;47177.91;;;-146.65;95.25
57094;BME280;42970;50.996;3.706;2023-08-12T07:32:37;47181.91;;;-146.65;95.28
57094;BME280;42970;50.996;3.706;2023-08-12T07:35:03;47175.91;;;-146.65;95.81
57094;BME280;42970;50.996;3.706;2023-08-12T07:37:28;47177.91;;;-146.65;95.57
57094;BME280;42970;50.996;3.706;2023-08-12T07:39:53;47175.91;;;-146.65;95.49
57094;BME280;42970;50.996;3.706;2023-08-12T07:42:19;47181.91;;;-146.65;94.20
57094;BME280;42970;50.996;3.706;2023-08-12T07:44:44;47177.91;;;-146.65;94.14
57094;BME280;42970;50.996;3.706;2023-08-12T07:47:10;47179.91;;;-146.65;92.79
57094;BME280;42970;50.996;3.706;2023-08-12T07:49:35;47177.91;;;-146.65;92.34
57094;BME280;42970;50.996;3.706;2023-08-12T07:52:01;47175.91;;;-146.65;91.58
57094;BME280;42970;50.996;3.706;2023-08-12T07:54:26;47175.91;;;-146.65;91.01
57094;BME280;42970;50.996;3.706;2023-08-12T07:56:52;47175.91;;;-146.65;90.90
57094;BME280;42970;50.996;3.706;2023-08-12T07:59:19;47179.91;;;-146.65;91.55
57094;BME280;42970;50.996;3.706;2023-08-12T08:01:45;47179.91;;;-146.65;92.06
57094;BME280;42970;50.996;3.706;2023-08-12T08:04:10;47179.91;;;-146.65;90.80
57094;BME280;42970;50.996;3.706;2023-08-12T08:06:36;47175.91;;;-146.65;87.63
57094;BME280;42970;50.996;3.706;2023-08-12T08:09:02;47177.91;;;-146.65;85.09
57094;BME280;42970;50.996;3.706;2023-08-12T08:11:29;47179.91;;;-146.65;83.55
57094;BME280;42970;50.996;3.706;2023-08-12T08:13:55;47173.91;;;-146.65;83.03
57094;BME280;42970;50.996;3.706;2023-08-12T08:16:20;47177.91;;;-146.65;83.70
57094;BME280;42970;50.996;3.706;2023-08-12T08:18:45;47177.91;;;-146.65;84.89
57094;BME280;42970;50.996;3.706;2023-08-12T08:21:11;47175.91;;;-146.65;86.03
57094;BME280;42970;50.996;3.706;2023-08-12T08:23:36;47173.91;;;-146.65;86.69
57094;BME280;42970;50.996;3.706;2023-08-12T08:26:01;47177.91;;;-146.65;85.85
57094;BME280;42970;50.996;3.706;2023-08-12T08:28:27;47181.91;;;-146.65;87.71
57094;BME280;42970;50.996;3.706;2023-08-12T08:30:53;47179.91;;;-146.65;86.90
57094;BME280;42970;50.996;3.706;2023-08-12T08:33:18;47181.91;;;-146.65;86.59
57094;BME280;42970;50.996;3.706;2023-08-12T08:35:44;47181.91;;;-146.65;85.73
57094;BME280;42970;50.996;3.706;2023-08-12T08:38:09;47179.91;;;-146.65;85.72
57094;BME280;42970;50.996;3.706;2023-08-12T08:40:34;47175.91;;;-146.65;85.17
57094;BME280;42970;50.996;3.706;2023-08-12T08:43:01;47177.91;;;-146.65;85.03
57094;BME280;42970;50.996;3.706;2023-08-12T08:45:28;47181.91;;;-146.65;83.60
57094;BME280;42970;50.996;3.706;2023-08-12T08:47:54;47175.91;;;-146.65;81.70
57094;BME280;42970;50.996;3.706;2023-08-12T08:50:20;47177.91;;;-146.65;82.43
57094;BME280;42970;50.996;3.706;2023-08-12T08:52:46;47173.91;;;-146.65;83.58
57094;BME280;42970;50.996;3.706;2023-08-12T08:55:12;47177.91;;;-146.65;82.44
57094;BME280;42970;50.996;3.706;2023-08-12T08:57:39;47179.91;;;-146.65;82.18
57094;BME280;42970;50.996;3.706;2023-08-12T09:00:05;47177.91;;;-146.65;80.88
57094;BME280;42970;50.996;3.706;2023-08-12T09:02:34;47179.91;;;-146.65;82.43
57094;BME280;42970;50.996;3.706;2023-08-12T09:05:01;47177.91;;;-146.65;80.76
57094;BME280;42970;50.996;3.706;2023-08-12T09:07:27;47177.91;;;-146.65;80.85
57094;BME280;42970;50.996;3.706;2023-08-12T09:09:52;47179.91;;;-146.65;80.54
57094;BME280;42970;50.996;3.706;2023-08-12T09:12:19;47175.91;;;-146.65;80.73
57094;BME280;42970;50.996;3.706;2023-08-12T09:14:45;47179.91;;;-146.65;82.74
57094;BME280;42970;50.996;3.706;2023-08-12T09:17:10;47177.91;;;-146.65;82.68
57094;BME280;42970;50.996;3.706;2023-08-12T09:19:36;47177.91;;;-146.65;83.15
57094;BME280;42970;50.996;3.706;2023-08-12T09:22:02;47181.91;;;-146.65;80.03
57094;BME280;42970;50.996;3.706;2023-08-12T09:24:28;47181.91;;;-146.65;79.65
57094;BME280;42970;50.996;3.706;2023-08-12T09:26:54;47185.91;;;-146.65;78.64
57094;BME280;42970;50.996;3.706;2023-08-12T09:29:23;47175.91;;;-146.65;78.81
57094;BME280;42970;50.996;3.706;2023-08-12T09:31:49;47179.91;;;-146.65;76.69
57094;BME280;42970;50.996;3.706;2023-08-12T09:34:15;47175.91;;;-146.65;77.59
57094;BME280;42970;50.996;3.706;2023-08-12T09:36:42;47175.91;;;-146.65;77.19
57094;BME280;42970;50.996;3.706;2023-08-12T09:39:08;47181.91;;;-146.65;78.37
57094;BME280;42970;50.996;3.706;2023-08-12T09:41:33;47181.91;;;-146.65;78.09
57094;BME280;42970;50.996;3.706;2023-08-12T09:44:01;47177.91;;;-146.65;76.52
57094;BME280;42970;50.996;3.706;2023-08-12T09:46:27;47181.91;;;-146.65;73.98
57094;BME280;42970;50.996;3.706;2023-08-12T09:48:52;47177.91;;;-146.65;75.25
57094;BME280;42970;50.996;3.706;2023-08-12T09:51:18;47181.91;;;-146.65;76.11
57094;BME280;42970;50.996;3.706;2023-08-12T09:53:43;47173.91;;;-146.65;76.02
57094;BME280;42970;50.996;3.706;2023-08-12T09:56:11;47177.91;;;-146.65;78.02
57094;BME280;42970;50.996;3.706;2023-08-12T09:58:36;47179.91;;;-146.65;77.84
57094;BME280;42970;50.996;3.706;2023-08-12T10:01:02;47181.91;;;-146.65;78.52
57094;BME280;42970;50.996;3.706;2023-08-12T10:03:28;47175.91;;;-146.65;77.92
57094;BME280;42970;50.996;3.706;2023-08-12T10:05:54;47175.91;;;-146.65;77.70
57094;BME280;42970;50.996;3.706;2023-08-12T10:08:20;47177.91;;;-146.65;78.10
57094;BME280;42970;50.996;3.706;2023-08-12T10:10:45;47175.91;;;-146.65;76.32
57094;BME280;42970;50.996;3.706;2023-08-12T10:13:11;47183.91;;;-146.65;74.71
57094;BME280;42970;50.996;3.706;2023-08-12T10:15:37;47175.91;;;-146.65;72.93
57094;BME280;42970;50.996;3.706;2023-08-12T10:18:04;47181.91;;;-146.65;72.21
57094;BME280;42970;50.996;3.706;2023-08-12T10:20:30;47183.91;;;-146.65;67.10
57094;BME280;42970;50.996;3.706;2023-08-12T10:22:56;47179.91;;;-146.65;65.47
57094;BME280;42970;50.996;3.706;2023-08-12T10:25:21;47177.91;;;-146.65;65.11
57094;BME280;42970;50.996;3.706;2023-08-12T10:27:50;47181.91;;;-146.65;66.21
57094;BME280;42970;50.996;3.706;2023-08-12T10:30:15;47181.91;;;-146.65;64.18
57094;BME280;42970;50.996;3.706;2023-08-12T10:32:40;47177.91;;;-146.65;65.44
57094;BME280;42970;50.996;3.706;2023-08-12T10:35:07;47179.91;;;-146.65;66.74
57094;BME280;42970;50.996;3.706;2023-08-12T10:37:34;47181.91;;;-146.65;63.42
57094;BME280;42970;50.996;3.706;2023-08-12T10:40:02;47179.91;;;-146.65;65.49
57094;BME280;42970;50.996;3.706;2023-08-12T10:42:45;47177.91;;;-146.65;64.78
57094;BME280;42970;50.996;3.706;2023-08-12T10:45:12;47179.91;;;-146.65;61.59
57094;BME280;42970;50.996;3.706;2023-08-12T10:47:40;47183.91;;;-146.65;60.19
57094;BME280;42970;50.996;3.706;2023-08-12T10:50:16;47179.91;;;-146.65;54.39
57094;BME280;42970;50.996;3.706;2023-08-12T10:52:42;47179.91;;;-146.65;52.98
57094;BME280;42970;50.996;3.706;2023-08-12T10:55:17;47183.91;;;-146.65;51.53
57094;BME280;42970;50.996;3.706;2023-08-12T10:57:43;47181.91;;;-146.65;48.89
57094;BME280;42970;50.996;3.706;2023-08-12T11:00:18;47179.91;;;-146.65;47.22
57094;BME280;42970;50.996;3.706;2023-08-12T11:02:50;47181.91;;;-146.65;47.09
57094;BME280;42970;50.996;3.706;2023-08-12T11:05:16;47181.91;;;-146.65;46.33
57094;BME280;42970;50.996;3.706;2023-08-12T11:07:46;47183.91;;;-146.65;45.46
57094;BME280;42970;50.996;3.706;2023-08-12T11:12:38;47183.91;;;-146.65;49.50
57094;BME280;42970;50.996;3.706;2023-08-12T11:15:03;47179.91;;;-146.65;53.38
57094;BME280;42970;50.996;3.706;2023-08-12T11:17:50;47181.91;;;-146.65;49.09
57094;BME280;42970;50.996;3.706;2023-08-12T11:20:14;47183.91;;;-146.65;52.73
57094;BME280;42970;50.996;3.706;2023-08-12T11:22:40;47179.91;;;-146.65;53.35
57094;BME280;42970;50.996;3.706;2023-08-12T11:25:10;47177.91;;;-146.65;45.62
57094;BME280;42970;50.996;3.706;2023-08-12T11:27:47;47181.91;;;-146.65;44.35
57094;BME280;42970;50.996;3.706;2023-08-12T11:30:14;47181.91;;;-146.65;41.76
57094;BME280;42970;50.996;3.706;2023-08-12T11:32:43;47181.91;;;-146.65;41.47
57094;BME280;42970;50.996;3.706;2023-08-12T11:35:09;47181.91;;;-146.65;42.21
57094;BME280;42970;50.996;3.706;2023-08-12T11:37:36;47181.91;;;-146.65;44.22
57094;BME280;42970;50.996;3.706;2023-08-12T11:40:02;47179.91;;;-146.65;43.56
57094;BME280;42970;50.996;3.706;2023-08-12T11:42:28;47177.91;;;-146.65;44.46
57094;BME280;42970;50.996;3.706;2023-08-12T11:44:53;47177.91;;;-146.65;46.61
57094;BME280;42970;50.996;3.706;2023-08-12T11:47:19;47183.91;;;-146.65;54.27
57094;BME280;42970;50.996;3.706;2023-08-12T11:49:44;47183.91;;;-146.65;55.78
57094;BME280;42970;50.996;3.706;2023-08-12T11:52:09;47181.91;;;-146.65;48.25
57094;BME280;42970;50.996;3.706;2023-08-12T11:54:36;47183.91;;;-146.65;44.59
57094;BME280;42970;50.996;3.706;2023-08-12T11:57:02;47181.91;;;-146.65;43.40
57094;BME280;42970;50.996;3.706;2023-08-12T11:59:27;47181.91;;;-146.65;49.09
57094;BME280;42970;50.996;3.706;2023-08-12T12:01:54;47183.91;;;-146.65;43.06
57094;BME280;42970;50.996;3.706;2023-08-12T12:04:20;47181.91;;;-146.65;40.63
57094;BME280;42970;50.996;3.706;2023-08-12T12:06:46;47179.91;;;-146.65;41.00
57094;BME280;42970;50.996;3.706;2023-08-12T12:09:15;47181.91;;;-146.65;44.09
57094;BME280;42970;50.996;3.706;2023-08-12T12:11:43;47181.91;;;-146.65;49.02
57094;BME280;42970;50.996;3.706;2023-08-12T12:14:10;47173.91;;;-146.65;49.23
57094;BME280;42970;50.996;3.706;2023-08-12T12:16:46;47181.91;;;-146.65;44.17
57094;BME280;42970;50.996;3.706;2023-08-12T12:19:20;47175.91;;;-146.65;43.07
57094;BME280;42970;50.996;3.706;2023-08-12T12:21:47;47181.91;;;-146.65;40.63
57094;BME280;42970;50.996;3.706;2023-08-12T12:24:13;47179.91;;;-146.65;37.55
57094;BME280;42970;50.996;3.706;2023-08-12T12:26:40;47179.91;;;-146.65;37.25
57094;BME280;42970;50.996;3.706;2023-08-12T12:29:06;47179.91;;;-146.65;36.98
57094;BME280;42970;50.996;3.706;2023-08-12T12:31:32;47179.91;;;-146.65;37.64
57094;BME280;42970;50.996;3.706;2023-08-12T12:33:58;47181.91;;;-146.65;35.28
57094;BME280;42970;50.996;3.706;2023-08-12T12:36:24;47179.91;;;-146.65;37.36